createdAt,value
2022-11-24T00:02:26.537Z,97.54
2022-11-24T00:04:56.194Z,97.89
2022-11-24T00:07:25.856Z,97.79
2022-11-24T00:09:55.447Z,97.55
2022-11-24T00:12:24.993Z,97.65
2022-11-24T00:14:57.194Z,97.64
2022-11-24T00:17:26.820Z,97.64
2022-11-24T00:19:56.382Z,97.75
2022-11-24T00:22:25.946Z,97.59
2022-11-24T00:24:55.775Z,97.94
2022-11-24T00:27:25.338Z,97.71
2022-11-24T00:29:57.806Z,98.10
2022-11-24T00:32:27.581Z,98.03
2022-11-24T00:34:57.131Z,98.24
2022-11-24T00:37:26.723Z,97.97
2022-11-24T00:39:56.292Z,98.05
2022-11-24T00:42:25.870Z,97.94
2022-11-24T00:44:58.044Z,98.25
2022-11-24T00:47:28.823Z,98.26
2022-11-24T00:49:58.370Z,98.26
2022-11-24T00:52:27.944Z,98.25
2022-11-24T00:54:57.512Z,98.38
2022-11-24T00:57:27.066Z,98.45
2022-11-24T00:59:59.209Z,98.41
2022-11-24T01:02:29.704Z,98.54
2022-11-24T01:04:59.279Z,98.54
2022-11-24T01:07:28.919Z,98.57
2022-11-24T01:09:58.500Z,98.48
2022-11-24T01:12:28.477Z,98.59
2022-11-24T01:15:01.094Z,98.46
2022-11-24T01:17:30.771Z,98.68
2022-11-24T01:20:00.391Z,98.72
2022-11-24T01:22:30.008Z,98.51
2022-11-24T01:24:59.603Z,98.78
2022-11-24T01:27:29.192Z,98.71
2022-11-24T01:30:01.568Z,98.63
2022-11-24T01:32:32.379Z,98.62
2022-11-24T01:35:01.969Z,98.71
2022-11-24T01:37:31.750Z,98.96
2022-11-24T01:40:01.341Z,98.64
2022-11-24T01:42:42.629Z,98.73
2022-11-24T01:45:43.292Z,98.42
2022-11-24T01:48:18.077Z,98.27
2022-11-24T01:50:48.254Z,97.88
2022-11-24T01:53:18.037Z,97.86
2022-11-24T01:55:47.671Z,97.64
2022-11-24T01:58:21.028Z,97.49
2022-11-24T02:00:53.970Z,97.12
2022-11-24T02:03:34.613Z,97.42
2022-11-24T02:06:08.155Z,97.31
2022-11-24T02:08:42.634Z,97.35
2022-11-24T02:11:12.499Z,97.36
2022-11-24T02:13:43.079Z,97.15
2022-11-24T02:16:15.720Z,97.31
2022-11-24T02:18:46.366Z,97.01
2022-11-24T02:21:17.870Z,97.10
2022-11-24T02:23:53.767Z,96.84
2022-11-24T02:26:33.855Z,96.62
2022-11-24T02:29:03.420Z,96.44
2022-11-24T02:31:33.212Z,96.19
2022-11-24T02:34:02.827Z,95.94
2022-11-24T02:36:32.574Z,95.79
2022-11-24T02:39:02.379Z,95.69
2022-11-24T02:41:34.489Z,95.21
2022-11-24T02:44:04.660Z,95.02
2022-11-24T02:46:34.332Z,94.68
2022-11-24T02:49:03.869Z,94.45
2022-11-24T02:51:34.442Z,94.21
2022-11-24T02:54:04.004Z,93.89
2022-11-24T02:56:36.143Z,93.69
2022-11-24T02:59:05.733Z,93.72
2022-11-24T03:01:35.285Z,93.46
2022-11-24T03:04:04.907Z,93.22
2022-11-24T03:06:34.463Z,93.07
2022-11-24T03:09:04.322Z,93.20
2022-11-24T03:11:36.461Z,92.89
2022-11-24T03:14:06.440Z,92.75
2022-11-24T03:16:36.260Z,92.71
2022-11-24T03:19:06.663Z,92.82
2022-11-24T03:21:36.277Z,92.74
2022-11-24T03:24:06.034Z,92.75
2022-11-24T03:26:38.476Z,92.77
2022-11-24T03:29:08.048Z,92.99
2022-11-24T03:31:37.811Z,93.34
2022-11-24T03:34:07.421Z,93.35
2022-11-24T03:36:36.972Z,93.33
2022-11-24T03:39:07.205Z,93.44
2022-11-24T03:41:39.360Z,93.42
2022-11-24T03:44:08.902Z,93.46
2022-11-24T03:46:39.022Z,93.49
2022-11-24T03:49:08.655Z,93.44
2022-11-24T03:51:38.298Z,93.27
2022-11-24T03:54:08.255Z,92.96
2022-11-24T03:56:40.378Z,93.10
2022-11-24T03:59:09.982Z,93.10
2022-11-24T04:01:39.575Z,93.15
2022-11-24T04:04:09.174Z,93.21
2022-11-24T04:06:38.703Z,92.84
2022-11-24T04:09:09.061Z,92.70
2022-11-24T04:11:53.627Z,92.51
2022-11-24T04:14:23.206Z,92.16
2022-11-24T04:16:52.749Z,92.13
2022-11-24T04:19:22.347Z,91.65
2022-11-24T04:21:52.094Z,91.61
2022-11-24T04:24:21.690Z,91.30
2022-11-24T04:26:54.514Z,91.40
2022-11-24T04:29:24.132Z,91.04
2022-11-24T04:31:53.782Z,91.23
2022-11-24T04:34:23.292Z,91.08
2022-11-24T04:36:53.435Z,90.96
2022-11-24T04:39:28.459Z,91.19
2022-11-24T04:42:01.467Z,91.14
2022-11-24T04:44:31.232Z,90.97
2022-11-24T04:47:01.077Z,91.10
2022-11-24T04:49:30.752Z,91.19
2022-11-24T04:52:00.543Z,91.11
2022-11-24T04:54:30.320Z,90.89
2022-11-24T04:57:02.617Z,90.89
2022-11-24T04:59:32.179Z,90.65
2022-11-24T05:02:01.787Z,90.72
2022-11-24T05:04:31.971Z,90.64
2022-11-24T05:07:01.693Z,90.41
2022-11-24T05:09:48.171Z,90.31
2022-11-24T05:12:24.546Z,90.32
2022-11-24T05:14:54.124Z,89.97
2022-11-24T05:17:23.724Z,90.17
2022-11-24T05:19:53.280Z,89.79
2022-11-24T05:22:22.807Z,89.72
2022-11-24T05:24:52.326Z,89.58
2022-11-24T05:27:24.674Z,89.75
2022-11-24T05:29:54.209Z,89.41
2022-11-24T05:32:23.758Z,89.38
2022-11-24T05:34:54.621Z,89.29
2022-11-24T05:37:25.649Z,89.39
2022-11-24T05:39:55.184Z,89.34
2022-11-24T05:42:44.907Z,89.30
2022-11-24T05:45:18.309Z,89.06
2022-11-24T05:47:48.239Z,89.04
2022-11-24T05:50:19.234Z,88.94
2022-11-24T05:52:49.166Z,88.91
2022-11-24T05:55:19.619Z,88.57
2022-11-24T05:57:51.851Z,88.83
2022-11-24T06:00:21.794Z,88.81
2022-11-24T06:02:51.665Z,89.02
2022-11-24T06:05:21.792Z,88.98
2022-11-24T06:07:52.339Z,88.70
2022-11-24T06:10:23.911Z,88.80
2022-11-24T06:12:56.255Z,88.70
2022-11-24T06:15:26.172Z,88.34
2022-11-24T06:17:57.423Z,88.46
2022-11-24T06:20:32.454Z,88.56
2022-11-24T06:23:02.690Z,88.45
2022-11-24T06:25:33.111Z,88.24
2022-11-24T06:28:07.724Z,88.24
2022-11-24T06:30:37.324Z,88.32
2022-11-24T06:33:06.902Z,87.96
2022-11-24T06:35:36.480Z,87.79
2022-11-24T06:38:07.647Z,87.80
2022-11-24T06:40:38.433Z,87.53
2022-11-24T06:43:10.559Z,87.63
2022-11-24T06:45:40.111Z,87.62
2022-11-24T06:48:09.673Z,87.48
2022-11-24T06:50:39.335Z,87.28
2022-11-24T06:53:08.905Z,86.92
2022-11-24T06:55:38.576Z,86.81
2022-11-24T06:58:10.716Z,86.72
2022-11-24T07:00:40.595Z,86.69
2022-11-24T07:03:10.455Z,86.55
2022-11-24T07:05:39.994Z,85.99
2022-11-24T07:08:13.206Z,85.93
2022-11-24T07:10:47.044Z,85.41
2022-11-24T07:13:19.230Z,85.11
2022-11-24T07:15:48.746Z,85.03
2022-11-24T07:18:18.289Z,84.81
2022-11-24T07:20:47.859Z,84.56
2022-11-24T07:23:17.364Z,84.23
2022-11-24T07:25:46.879Z,83.87
2022-11-24T07:28:18.967Z,83.72
2022-11-24T07:30:48.475Z,83.44
2022-11-24T07:33:21.264Z,83.30
2022-11-24T07:35:50.838Z,83.07
2022-11-24T07:38:20.344Z,83.10
2022-11-24T07:40:50.184Z,82.77
2022-11-24T07:43:22.748Z,82.79
2022-11-24T07:45:54.406Z,82.49
2022-11-24T07:48:24.007Z,82.29
2022-11-24T07:50:56.036Z,82.25
2022-11-24T07:53:25.942Z,82.32
2022-11-24T07:55:58.156Z,82.00
2022-11-24T07:58:33.002Z,82.09
2022-11-24T08:01:03.133Z,81.92
2022-11-24T08:03:32.821Z,82.03
2022-11-24T08:08:52.630Z,81.57
2022-11-24T08:11:22.139Z,81.57
2022-11-24T08:13:54.254Z,81.57
2022-11-24T08:16:23.962Z,81.33
2022-11-24T08:18:54.723Z,81.60
2022-11-24T08:21:25.529Z,81.43
2022-11-24T08:23:57.143Z,81.30
2022-11-24T08:26:27.090Z,81.33
2022-11-24T08:29:00.836Z,81.37
2022-11-24T08:31:33.935Z,81.14
2022-11-24T08:34:04.351Z,81.15
2022-11-24T08:36:34.796Z,81.10
2022-11-24T08:39:05.149Z,80.79
2022-11-24T08:41:34.746Z,80.98
2022-11-24T08:44:08.451Z,80.92
2022-11-24T08:46:38.050Z,80.82
2022-11-24T08:49:07.661Z,80.73
2022-11-24T08:51:37.316Z,80.87
2022-11-24T08:54:07.023Z,80.69
2022-11-24T08:56:36.729Z,80.80
2022-11-24T08:59:08.965Z,80.72
2022-11-24T09:01:54.739Z,80.68
2022-11-24T09:04:24.375Z,80.40
2022-11-24T09:06:53.959Z,80.56
2022-11-24T09:09:23.479Z,80.53
2022-11-24T09:11:53.005Z,80.46
2022-11-24T09:14:25.178Z,80.40
2022-11-24T09:16:54.995Z,80.43
2022-11-24T09:19:24.927Z,80.31
2022-11-24T09:21:54.541Z,80.26
2022-11-24T09:24:24.152Z,80.20
2022-11-24T09:26:53.703Z,80.21
2022-11-24T09:29:25.977Z,80.12
2022-11-24T09:31:55.520Z,80.04
2022-11-24T09:34:25.050Z,79.95
2022-11-24T09:36:54.669Z,79.73
2022-11-24T09:39:24.420Z,79.58
2022-11-24T09:42:04.083Z,79.57
2022-11-24T09:44:53.024Z,79.27
2022-11-24T09:47:29.200Z,79.23
2022-11-24T09:50:02.369Z,79.21
2022-11-24T09:52:42.390Z,79.09
2022-11-24T09:55:28.742Z,79.09
2022-11-24T09:58:06.307Z,79.12
2022-11-24T10:00:39.462Z,78.97
2022-11-24T10:03:09.286Z,78.94
2022-11-24T10:05:39.115Z,78.81
2022-11-24T10:08:21.787Z,78.79
2022-11-24T10:10:55.112Z,78.46
2022-11-24T10:13:35.508Z,78.33
2022-11-24T10:16:17.912Z,78.47
2022-11-24T10:18:59.837Z,77.96
2022-11-24T10:21:38.952Z,77.57
2022-11-24T10:24:25.384Z,77.32
2022-11-24T10:26:59.712Z,77.35
2022-11-24T10:29:32.223Z,77.02
2022-11-24T10:32:08.643Z,76.63
2022-11-24T10:34:41.019Z,76.43
2022-11-24T10:37:17.800Z,76.50
2022-11-24T10:39:58.537Z,76.13
2022-11-24T10:42:31.534Z,75.88
2022-11-24T10:45:05.132Z,75.75
2022-11-24T10:47:37.293Z,75.17
2022-11-24T10:50:11.869Z,74.65
2022-11-24T10:52:44.860Z,74.32
2022-11-24T10:55:14.504Z,74.06
2022-11-24T10:57:45.270Z,73.41
2022-11-24T11:00:34.240Z,73.01
2022-11-24T11:03:21.905Z,72.98
2022-11-24T11:05:54.015Z,72.80
2022-11-24T11:08:26.687Z,72.63
2022-11-24T11:11:15.640Z,71.81
2022-11-24T11:14:00.050Z,71.51
2022-11-24T11:16:37.650Z,71.86
2022-11-24T11:19:50.870Z,71.65
2022-11-24T11:22:26.935Z,71.84
2022-11-24T11:25:07.125Z,71.70
2022-11-24T11:27:36.755Z,71.55
2022-11-24T11:36:14.781Z,71.91
2022-11-24T11:38:45.032Z,71.94
2022-11-24T11:41:21.888Z,71.78
2022-11-24T11:43:55.290Z,71.48
2022-11-24T11:46:26.020Z,71.23
2022-11-24T11:48:55.631Z,70.78
2022-11-24T11:51:45.347Z,70.37
2022-11-24T11:54:21.603Z,70.40
2022-11-24T11:56:53.150Z,70.35
2022-11-24T11:59:33.936Z,70.18
2022-11-24T12:02:27.990Z,69.71
2022-11-24T12:05:00.050Z,69.41
2022-11-24T12:07:46.318Z,69.29
2022-11-24T12:10:23.967Z,69.21
2022-11-24T12:13:06.482Z,69.31
2022-11-24T12:15:40.716Z,69.69
2022-11-24T12:18:55.981Z,69.70
2022-11-24T12:21:26.241Z,70.11
2022-11-24T12:24:10.545Z,69.94
2022-11-24T12:26:44.833Z,70.14
2022-11-24T12:29:33.000Z,70.14
2022-11-24T12:32:08.628Z,70.42
2022-11-24T12:34:45.358Z,70.69
2022-11-24T12:37:25.620Z,70.67
2022-11-24T12:40:01.708Z,70.90
2022-11-24T12:42:38.796Z,70.98
2022-11-24T12:45:15.778Z,71.12
2022-11-24T12:47:58.943Z,71.23
2022-11-24T12:50:30.958Z,71.10
2022-11-24T12:53:03.163Z,71.30
2022-11-24T12:55:36.332Z,71.38
2022-11-24T12:58:11.421Z,71.56
2022-11-24T13:00:51.069Z,71.82
2022-11-24T13:03:32.484Z,71.92
2022-11-24T13:06:05.552Z,72.30
2022-11-24T13:08:35.235Z,72.57
2022-11-24T13:11:33.471Z,72.71
2022-11-24T13:14:03.885Z,72.98
2022-11-24T13:19:24.623Z,73.03
2022-11-24T13:22:21.652Z,73.31
2022-11-24T13:25:11.916Z,73.40
2022-11-24T13:27:49.170Z,73.63
2022-11-24T13:30:51.419Z,73.80
2022-11-24T13:33:33.696Z,73.70
2022-11-24T13:36:35.686Z,73.71
2022-11-24T13:39:07.359Z,73.69
2022-11-24T13:42:10.121Z,73.82
2022-11-24T13:45:03.139Z,74.25
2022-11-24T13:47:38.289Z,74.33
2022-11-24T13:50:10.582Z,74.54
2022-11-24T13:52:51.333Z,74.63
2022-11-24T13:55:33.972Z,74.69
2022-11-24T13:58:23.523Z,74.57
2022-11-24T14:01:24.873Z,74.51
2022-11-24T14:07:05.583Z,74.61
2022-11-24T14:09:39.557Z,74.46
2022-11-24T14:12:16.290Z,74.48
2022-11-24T14:14:47.398Z,74.70
2022-11-24T14:17:29.410Z,74.77
2022-11-24T14:20:00.781Z,74.83
2022-11-24T14:22:44.146Z,74.76
2022-11-24T14:25:23.324Z,74.80
2022-11-24T14:27:53.038Z,74.57
2022-11-24T14:30:24.900Z,74.63
2022-11-24T14:33:01.864Z,74.71
2022-11-24T14:35:33.447Z,74.88
2022-11-24T14:38:05.114Z,74.86
2022-11-24T14:40:42.269Z,74.74
2022-11-24T14:43:23.826Z,74.82
2022-11-24T14:45:56.241Z,75.06
2022-11-24T14:48:30.731Z,75.28
2022-11-24T14:51:09.459Z,75.31
2022-11-24T14:53:39.373Z,75.53
2022-11-24T14:56:16.625Z,75.62
2022-11-24T14:58:46.228Z,75.85
2022-11-24T15:01:32.749Z,75.90
2022-11-24T15:07:20.094Z,76.06
2022-11-24T15:09:53.668Z,76.25
2022-11-24T15:12:30.664Z,76.36
2022-11-24T15:15:02.322Z,76.60
2022-11-24T15:17:32.723Z,77.02
2022-11-24T15:20:11.803Z,77.13
2022-11-24T15:22:43.534Z,77.36
2022-11-24T15:25:32.540Z,77.61
2022-11-24T15:28:02.365Z,77.89
2022-11-24T15:30:32.332Z,78.13
2022-11-24T15:33:02.485Z,78.42
2022-11-24T15:35:35.695Z,78.64
2022-11-24T15:38:05.328Z,78.99
2022-11-24T15:40:34.972Z,79.32
2022-11-24T15:43:06.700Z,79.54
2022-11-24T15:45:37.115Z,79.69
2022-11-24T15:48:06.921Z,79.96
2022-11-24T15:50:39.430Z,80.15
2022-11-24T15:53:09.229Z,80.21
2022-11-24T15:55:39.540Z,80.62
2022-11-24T15:58:10.238Z,80.49
2022-11-24T16:00:40.500Z,80.60
2022-11-24T16:03:44.459Z,80.80
2022-11-24T16:06:02.415Z,80.99
2022-11-24T16:08:31.965Z,81.10
2022-11-24T16:11:01.575Z,81.03
2022-11-24T16:13:31.193Z,81.15
2022-11-24T16:16:00.880Z,81.10
2022-11-24T16:18:31.617Z,81.29
2022-11-24T16:21:04.153Z,81.37
2022-11-24T16:23:33.728Z,81.49
2022-11-24T16:26:03.406Z,81.59
2022-11-24T16:28:33.265Z,81.82
2022-11-24T16:31:02.863Z,81.79
2022-11-24T16:33:38.651Z,81.89
2022-11-24T16:36:11.853Z,82.28
2022-11-24T16:38:41.484Z,82.40
2022-11-24T16:41:11.682Z,82.42
2022-11-24T16:43:41.585Z,82.50
2022-11-24T16:46:22.248Z,82.56
2022-11-24T16:48:53.098Z,82.63
2022-11-24T16:51:29.896Z,82.94
2022-11-24T16:54:01.922Z,82.75
2022-11-24T16:56:32.186Z,83.06
2022-11-24T16:59:01.804Z,83.07
2022-11-24T17:01:33.034Z,82.89
2022-11-24T17:04:03.751Z,82.72
2022-11-24T17:06:38.253Z,82.62
2022-11-24T17:09:07.837Z,82.48
2022-11-24T17:11:37.485Z,82.53
2022-11-24T17:14:07.212Z,82.40
2022-11-24T17:16:36.814Z,82.29
2022-11-24T17:19:06.647Z,82.35
2022-11-24T17:21:38.819Z,82.40
2022-11-24T17:24:15.089Z,82.52
2022-11-24T17:26:48.768Z,82.69
2022-11-24T17:29:18.785Z,82.65
2022-11-24T17:31:49.167Z,82.59
2022-11-24T17:34:18.805Z,82.72
2022-11-24T17:36:51.486Z,82.74
2022-11-24T17:39:24.788Z,82.59
2022-11-24T17:41:54.686Z,82.78
2022-11-24T17:44:24.252Z,82.98
2022-11-24T17:46:53.838Z,82.66
2022-11-24T17:49:23.404Z,83.12
2022-11-24T17:51:55.650Z,82.91
2022-11-24T17:54:45.579Z,83.03
2022-11-24T17:57:14.959Z,83.01
2022-11-24T17:59:44.490Z,83.20
2022-11-24T18:02:14.193Z,83.37
2022-11-24T18:04:43.743Z,83.60
2022-11-24T18:07:15.925Z,83.56
2022-11-24T18:09:45.480Z,83.59
2022-11-24T18:12:15.240Z,83.58
2022-11-24T18:14:44.830Z,83.46
2022-11-24T18:17:14.483Z,83.39
2022-11-24T18:19:45.686Z,83.46
2022-11-24T18:22:21.003Z,83.65
2022-11-24T18:24:56.722Z,83.52
2022-11-24T18:27:26.491Z,83.65
2022-11-24T18:29:56.323Z,83.53
2022-11-24T18:32:26.028Z,83.59
2022-11-24T18:34:55.585Z,83.61
2022-11-24T18:37:27.763Z,83.62
2022-11-24T18:39:57.311Z,83.76
2022-11-24T18:42:26.907Z,83.91
2022-11-24T18:44:56.622Z,83.86
2022-11-24T18:47:26.302Z,83.90
2022-11-24T18:49:59.160Z,84.14
2022-11-24T18:52:31.377Z,84.11
2022-11-24T18:55:03.888Z,84.15
2022-11-24T18:57:33.732Z,84.28
2022-11-24T19:00:03.341Z,84.12
2022-11-24T19:02:33.027Z,84.27
2022-11-24T19:05:03.060Z,84.43
2022-11-24T19:07:35.289Z,84.46
2022-11-24T19:10:04.876Z,84.41
2022-11-24T19:12:34.491Z,84.42
2022-11-24T19:15:04.074Z,84.52
2022-11-24T19:17:33.690Z,84.73
2022-11-24T19:20:03.252Z,84.59
2022-11-24T19:22:35.516Z,84.51
2022-11-24T19:25:05.414Z,84.54
2022-11-24T19:27:35.684Z,84.58
2022-11-24T19:30:05.308Z,84.69
2022-11-24T19:32:35.113Z,84.65
2022-11-24T19:35:04.715Z,84.65
2022-11-24T19:37:37.076Z,84.54
2022-11-24T19:40:07.367Z,84.39
2022-11-24T19:42:37.030Z,84.41
2022-11-24T19:45:07.678Z,83.98
2022-11-24T19:47:37.255Z,84.08
2022-11-24T19:50:10.502Z,84.03
2022-11-24T19:52:42.885Z,84.16
2022-11-24T19:55:12.713Z,84.16
2022-11-24T19:57:42.329Z,84.09
2022-11-24T20:00:12.795Z,84.21
2022-11-24T20:02:42.478Z,84.01
2022-11-24T20:05:12.202Z,84.02
2022-11-24T20:07:44.454Z,84.07
2022-11-24T20:10:14.133Z,84.04
2022-11-24T20:12:43.756Z,83.78
2022-11-24T20:15:13.445Z,83.87
2022-11-24T20:17:43.053Z,83.62
2022-11-24T20:20:13.717Z,83.89
2022-11-24T20:22:46.648Z,83.62
2022-11-24T20:25:16.292Z,84.08
2022-11-24T20:27:45.904Z,84.01
2022-11-24T20:30:15.764Z,84.25
2022-11-24T20:32:45.404Z,84.07
2022-11-24T20:35:18.191Z,84.19
2022-11-24T20:37:50.684Z,84.27
2022-11-24T20:40:20.260Z,84.08
2022-11-24T20:42:49.810Z,84.31
2022-11-24T20:45:19.428Z,84.20
2022-11-24T20:47:48.982Z,84.51
2022-11-24T20:50:18.620Z,84.67
2022-11-24T20:52:50.764Z,84.84
2022-11-24T20:55:20.391Z,84.67
2022-11-24T20:57:49.973Z,84.98
2022-11-24T21:00:19.979Z,84.85
2022-11-24T21:02:49.837Z,85.09
2022-11-24T21:05:19.610Z,85.21
2022-11-24T21:07:51.856Z,85.42
2022-11-24T21:10:21.489Z,85.49
2022-11-24T21:12:51.051Z,85.44
2022-11-24T21:15:20.584Z,85.82
2022-11-24T21:17:50.161Z,85.74
2022-11-24T21:20:19.812Z,85.63
2022-11-24T21:22:51.998Z,85.94
2022-11-24T21:25:21.644Z,85.88
2022-11-24T21:27:51.244Z,86.06
2022-11-24T21:30:20.893Z,85.82
2022-11-24T21:32:50.642Z,86.12
2022-11-24T21:35:20.300Z,86.06
2022-11-24T21:37:52.588Z,86.15
2022-11-24T21:40:22.182Z,86.06
2022-11-24T21:42:54.036Z,86.17
2022-11-24T21:45:23.778Z,86.20
2022-11-24T21:47:53.483Z,86.17
2022-11-24T21:50:23.140Z,86.58
2022-11-24T21:52:59.258Z,86.44
2022-11-24T21:55:31.665Z,86.46
2022-11-24T21:58:01.210Z,86.82
2022-11-24T22:00:30.759Z,86.74
2022-11-24T22:03:00.347Z,86.87
2022-11-24T22:05:29.920Z,86.58
2022-11-24T22:08:02.104Z,86.73
2022-11-24T22:10:31.634Z,86.38
2022-11-24T22:13:01.274Z,86.19
2022-11-24T22:15:30.836Z,86.16
2022-11-24T22:18:00.906Z,85.93
2022-11-24T22:20:30.507Z,85.77
2022-11-24T22:23:02.646Z,85.58
2022-11-24T22:25:32.239Z,85.45
2022-11-24T22:28:01.893Z,85.47
2022-11-24T22:30:31.457Z,85.39
2022-11-24T22:33:00.991Z,85.45
2022-11-24T22:35:30.538Z,85.62
2022-11-24T22:38:02.713Z,85.54
2022-11-24T22:40:32.262Z,85.53
2022-11-24T22:43:01.847Z,85.50
2022-11-24T22:45:31.450Z,85.31
2022-11-24T22:48:01.153Z,85.21
2022-11-24T22:50:30.695Z,85.13
2022-11-24T22:53:02.872Z,85.30
2022-11-24T22:55:32.409Z,85.32
2022-11-24T22:58:01.989Z,85.16
2022-11-24T23:00:31.707Z,85.17
2022-11-24T23:03:01.360Z,85.25
2022-11-24T23:05:31.205Z,85.20
2022-11-24T23:08:03.845Z,85.25
2022-11-24T23:10:33.396Z,85.13
2022-11-24T23:13:02.963Z,85.02
2022-11-24T23:15:32.863Z,84.78
2022-11-24T23:18:02.457Z,84.80
2022-11-24T23:20:32.023Z,84.45
2022-11-24T23:23:04.191Z,84.25
2022-11-24T23:25:33.727Z,84.18
2022-11-24T23:28:03.316Z,83.96
2022-11-24T23:30:32.961Z,83.92
2022-11-24T23:33:02.763Z,83.60
2022-11-24T23:35:32.387Z,83.43
2022-11-24T23:38:08.157Z,83.50
2022-11-24T23:40:37.815Z,83.22
2022-11-24T23:43:07.402Z,82.95
2022-11-24T23:45:36.963Z,83.07
2022-11-24T23:48:08.588Z,82.98
2022-11-24T23:50:38.228Z,82.84
2022-11-24T23:53:10.530Z,82.84
2022-11-24T23:55:40.056Z,82.74
2022-11-24T23:58:09.868Z,82.82
